createdAt,value
2019-01-24T00:01:36.182Z,99909.20
2019-01-24T00:04:05.795Z,99908.75
2019-01-24T00:06:35.407Z,99909.61
2019-01-24T00:09:08.074Z,99906.59
2019-01-24T00:11:37.925Z,99908.29
2019-01-24T00:14:07.569Z,99909.10
2019-01-24T00:16:37.197Z,99915.16
2019-01-24T00:19:06.820Z,99912.97
2019-01-24T00:21:36.686Z,99913.39
2019-01-24T00:24:06.486Z,99912.52
2019-01-24T00:26:35.988Z,99913.41
2019-01-24T00:29:05.871Z,99916.80
2019-01-24T00:31:35.402Z,99921.02
2019-01-24T00:34:04.992Z,99923.64
2019-01-24T00:36:34.516Z,99921.05
2019-01-24T00:39:06.948Z,99926.22
2019-01-24T00:41:36.502Z,99924.05
2019-01-24T00:44:06.264Z,99922.80
2019-01-24T00:46:36.157Z,99923.18
2019-01-24T00:49:05.709Z,99924.47
2019-01-24T00:51:35.533Z,99922.81
2019-01-24T00:54:05.436Z,99930.53
2019-01-24T00:56:35.376Z,99926.24
2019-01-24T00:59:04.887Z,99933.55
2019-01-24T01:01:34.446Z,99937.41
2019-01-24T01:04:04.384Z,99940.73
2019-01-24T01:06:34.460Z,99935.61
2019-01-24T01:09:07.597Z,99942.10
2019-01-24T01:11:37.154Z,99940.35
2019-01-24T01:14:06.800Z,99941.95
2019-01-24T01:16:36.400Z,99948.06
2019-01-24T01:19:06.013Z,99951.50
2019-01-24T01:21:35.548Z,99954.48
2019-01-24T01:24:05.511Z,99959.65
2019-01-24T01:26:35.108Z,99946.71
2019-01-24T01:29:05.403Z,99950.91
2019-01-24T01:31:35.179Z,99949.60
2019-01-24T01:34:05.163Z,99954.39
2019-01-24T01:36:35.163Z,99955.17
2019-01-24T01:39:07.916Z,99947.27
2019-01-24T01:41:37.770Z,99921.71
2019-01-24T01:44:07.416Z,99952.89
2019-01-24T01:46:37.262Z,99964.68
2019-01-24T01:49:06.876Z,99960.80
2019-01-24T01:51:36.447Z,99958.66
2019-01-24T01:54:05.962Z,99962.10
2019-01-24T01:56:35.498Z,99962.96
2019-01-24T01:59:05.567Z,99967.22
2019-01-24T02:01:35.698Z,99976.19
2019-01-24T02:04:05.881Z,99975.84
2019-01-24T02:06:35.739Z,99976.28
2019-01-24T02:09:09.849Z,99972.83
2019-01-24T02:11:39.591Z,99974.05
2019-01-24T02:14:09.288Z,99969.31
2019-01-24T02:16:39.158Z,99965.77
2019-01-24T02:19:08.782Z,99971.53
2019-01-24T02:21:38.303Z,99966.01
2019-01-24T02:24:07.785Z,99970.31
2019-01-24T02:26:37.423Z,99966.35
2019-01-24T02:29:07.043Z,99969.76
2019-01-24T02:31:36.873Z,99965.11
2019-01-24T02:34:06.602Z,99966.38
2019-01-24T02:36:36.254Z,99962.06
2019-01-24T02:39:07.750Z,99969.39
2019-01-24T02:41:37.404Z,99971.53
2019-01-24T02:44:06.914Z,99972.77
2019-01-24T02:46:36.778Z,99971.05
2019-01-24T02:49:06.848Z,99974.88
2019-01-24T02:51:36.818Z,99964.56
2019-01-24T02:54:06.580Z,99963.27
2019-01-24T02:56:36.774Z,99957.30
2019-01-24T02:59:06.693Z,99967.95
2019-01-24T03:01:36.816Z,99974.37
2019-01-24T03:04:06.902Z,99968.33
2019-01-24T03:06:37.181Z,99961.63
2019-01-24T03:09:07.529Z,99961.88
2019-01-24T03:11:37.119Z,99958.89
2019-01-24T03:14:07.125Z,99957.42
2019-01-24T03:16:37.252Z,99958.88
2019-01-24T03:19:07.238Z,99954.95
2019-01-24T03:21:37.289Z,99960.06
2019-01-24T03:24:07.137Z,99963.03
2019-01-24T03:26:37.115Z,99955.25
2019-01-24T03:29:08.398Z,99956.48
2019-01-24T03:31:38.202Z,99959.68
2019-01-24T03:34:07.708Z,99964.87
2019-01-24T03:36:37.395Z,99971.24
2019-01-24T03:39:08.759Z,99973.77
2019-01-24T03:41:38.247Z,99969.48
2019-01-24T03:44:07.877Z,99970.42
2019-01-24T03:46:37.486Z,99973.70
2019-01-24T03:49:08.038Z,99930.66
2019-01-24T03:51:37.824Z,99967.50
2019-01-24T03:54:08.025Z,99973.73
2019-01-24T03:56:37.882Z,99978.55
2019-01-24T03:59:07.901Z,99979.05
2019-01-24T04:01:38.198Z,99981.98
2019-01-24T04:04:08.670Z,99979.97
2019-01-24T04:06:39.045Z,99985.00
2019-01-24T04:09:09.084Z,99985.73
2019-01-24T04:11:38.647Z,99988.84
2019-01-24T04:14:08.456Z,99983.38
2019-01-24T04:16:38.199Z,99985.94
2019-01-24T04:19:08.672Z,99983.73
2019-01-24T04:21:38.694Z,99991.59
2019-01-24T04:24:08.394Z,99991.08
2019-01-24T04:26:38.428Z,99993.60
2019-01-24T04:29:08.408Z,99999.79
2019-01-24T04:31:39.227Z,99994.48
2019-01-24T04:34:09.276Z,99988.91
2019-01-24T04:36:39.074Z,99982.86
2019-01-24T04:39:08.755Z,99990.76
2019-01-24T04:41:38.735Z,99992.44
2019-01-24T04:44:09.444Z,99993.66
2019-01-24T04:46:38.978Z,99995.22
2019-01-24T04:49:09.141Z,99993.16
2019-01-24T04:51:38.913Z,99999.62
2019-01-24T04:54:08.959Z,99997.94
2019-01-24T04:56:39.295Z,100002.05
2019-01-24T04:59:09.033Z,99996.18
2019-01-24T05:01:39.060Z,100000.66
2019-01-24T05:04:09.106Z,100007.92
2019-01-24T05:06:39.133Z,100008.38
2019-01-24T05:09:09.256Z,100011.42
2019-01-24T05:11:39.621Z,100016.63
2019-01-24T05:14:09.633Z,100028.20
2019-01-24T05:16:39.791Z,100027.30
2019-01-24T05:19:10.175Z,100032.45
2019-01-24T05:21:39.938Z,100032.30
2019-01-24T05:24:09.646Z,100032.80
2019-01-24T05:26:39.470Z,100033.29
2019-01-24T05:29:09.740Z,100032.83
2019-01-24T05:31:39.706Z,100031.37
2019-01-24T05:34:09.840Z,100033.57
2019-01-24T05:36:39.832Z,100034.17
2019-01-24T05:39:10.243Z,100040.08
2019-01-24T05:41:40.380Z,100037.59
2019-01-24T05:44:10.607Z,100041.03
2019-01-24T05:46:40.140Z,100045.63
2019-01-24T05:49:10.741Z,100046.02
2019-01-24T05:51:40.283Z,100048.52
2019-01-24T05:54:10.116Z,100056.92
2019-01-24T05:56:40.007Z,100046.16
2019-01-24T05:59:10.453Z,100052.08
2019-01-24T06:01:40.865Z,100051.98
2019-01-24T06:04:12.302Z,100062.75
2019-01-24T06:06:42.414Z,100064.05
2019-01-24T06:09:12.235Z,100063.63
2019-01-24T06:11:42.062Z,100071.36
2019-01-24T06:14:11.652Z,100071.58
2019-01-24T06:16:41.486Z,100064.59
2019-01-24T06:19:11.072Z,100069.28
2019-01-24T06:21:40.842Z,100074.57
2019-01-24T06:24:11.216Z,100068.95
2019-01-24T06:26:41.168Z,100072.27
2019-01-24T06:29:10.922Z,100071.91
2019-01-24T06:31:40.720Z,100068.89
2019-01-24T06:34:10.583Z,100081.02
2019-01-24T06:36:40.881Z,100074.49
2019-01-24T06:39:10.697Z,100079.28
2019-01-24T06:41:40.825Z,100083.44
2019-01-24T06:44:11.061Z,100086.88
2019-01-24T06:46:40.931Z,100087.21
2019-01-24T06:49:11.070Z,100082.59
2019-01-24T06:51:41.140Z,100095.34
2019-01-24T06:54:11.585Z,100095.38
2019-01-24T06:56:41.406Z,100096.75
2019-01-24T06:59:11.804Z,100101.42
2019-01-24T07:01:41.868Z,100101.91
2019-01-24T07:04:11.520Z,100108.32
2019-01-24T07:06:41.168Z,100107.66
2019-01-24T07:09:11.202Z,100104.81
2019-01-24T07:11:41.525Z,100098.09
2019-01-24T07:14:11.280Z,100097.59
2019-01-24T07:16:41.360Z,100105.78
2019-01-24T07:19:11.544Z,100110.36
2019-01-24T07:21:41.789Z,100108.19
2019-01-24T07:24:11.714Z,100109.86
2019-01-24T07:26:41.565Z,100106.87
2019-01-24T07:29:11.543Z,100117.56
2019-01-24T07:31:41.896Z,100122.45
2019-01-24T07:34:11.701Z,100118.99
2019-01-24T07:36:41.766Z,100114.27
2019-01-24T07:39:11.783Z,100116.95
2019-01-24T07:41:42.169Z,100120.28
2019-01-24T07:44:12.207Z,100126.81
2019-01-24T07:46:41.915Z,100121.74
2019-01-24T07:49:12.198Z,100131.50
2019-01-24T07:51:42.071Z,100135.31
2019-01-24T07:54:12.334Z,100132.05
2019-01-24T07:56:42.322Z,100140.20
2019-01-24T07:59:12.121Z,100147.84
2019-01-24T08:01:42.898Z,100150.00
2019-01-24T08:04:12.886Z,100145.71
2019-01-24T08:06:42.548Z,100151.31
2019-01-24T08:09:13.282Z,100153.95
2019-01-24T08:11:43.564Z,100149.53
2019-01-24T08:14:13.752Z,100150.72
2019-01-24T08:16:43.868Z,100146.95
2019-01-24T08:19:13.843Z,100147.70
2019-01-24T08:21:43.662Z,100147.17
2019-01-24T08:24:13.189Z,100147.72
2019-01-24T08:26:42.699Z,100146.07
2019-01-24T08:29:12.624Z,100148.71
2019-01-24T08:31:43.023Z,100140.88
2019-01-24T08:34:12.973Z,100144.83
2019-01-24T08:36:42.772Z,100146.84
2019-01-24T08:39:12.812Z,100151.98
2019-01-24T08:41:43.058Z,100150.58
2019-01-24T08:44:13.539Z,100156.98
2019-01-24T08:46:43.339Z,100158.95
2019-01-24T08:49:13.061Z,100163.23
2019-01-24T08:51:43.048Z,100158.39
2019-01-24T08:54:13.359Z,100164.83
2019-01-24T08:56:43.545Z,100165.86
2019-01-24T08:59:13.498Z,100166.47
2019-01-24T09:01:43.589Z,100160.31
2019-01-24T09:04:13.293Z,100156.39
2019-01-24T09:06:43.652Z,100161.83
2019-01-24T09:09:13.395Z,100153.84
2019-01-24T09:11:43.436Z,100145.27
2019-01-24T09:14:13.422Z,100162.86
2019-01-24T09:16:43.494Z,100158.28
2019-01-24T09:19:14.081Z,100164.18
2019-01-24T09:21:43.876Z,100167.41
2019-01-24T09:24:13.620Z,100162.52
2019-01-24T09:26:44.639Z,100173.63
2019-01-24T09:29:14.560Z,100185.01
2019-01-24T09:31:44.410Z,100177.98
2019-01-24T09:34:14.252Z,100179.31
2019-01-24T09:36:43.997Z,100178.38
2019-01-24T09:39:13.813Z,100183.34
2019-01-24T09:41:44.258Z,100185.74
2019-01-24T09:44:13.899Z,100192.48
2019-01-24T09:46:43.989Z,100192.98
2019-01-24T09:49:14.369Z,100192.45
2019-01-24T09:51:44.306Z,100195.61
2019-01-24T09:54:14.494Z,100199.81
2019-01-24T09:56:44.408Z,100195.12
2019-01-24T09:59:14.165Z,100196.15
2019-01-24T10:01:44.744Z,100198.88
2019-01-24T10:04:14.302Z,100191.55
2019-01-24T10:06:44.270Z,100202.49
2019-01-24T10:09:14.268Z,100206.87
2019-01-24T10:11:44.709Z,100207.59
2019-01-24T10:14:14.389Z,100206.28
2019-01-24T10:16:44.564Z,100213.53
2019-01-24T10:19:15.214Z,100206.20
2019-01-24T10:21:45.206Z,100215.48
2019-01-24T10:24:14.996Z,100212.11
2019-01-24T10:26:45.052Z,100211.66
2019-01-24T10:29:15.218Z,100217.33
2019-01-24T10:31:46.435Z,100209.91
2019-01-24T10:34:16.135Z,100213.66
2019-01-24T10:36:45.698Z,100207.53
2019-01-24T10:39:15.405Z,100214.05
2019-01-24T10:41:45.293Z,100206.28
2019-01-24T10:44:15.520Z,100205.19
2019-01-24T10:46:46.945Z,100204.95
2019-01-24T10:49:16.509Z,100200.25
2019-01-24T10:51:47.731Z,100200.89
2019-01-24T10:54:17.328Z,100194.11
2019-01-24T10:56:47.122Z,100205.09
2019-01-24T10:59:16.937Z,100203.52
2019-01-24T11:01:46.769Z,100199.10
2019-01-24T11:04:16.658Z,100191.53
2019-01-24T11:06:49.955Z,100202.27
2019-01-24T11:09:17.709Z,100195.16
2019-01-24T11:11:47.708Z,100203.00
2019-01-24T11:14:17.479Z,100199.09
2019-01-24T11:16:47.063Z,100205.53
2019-01-24T11:19:16.927Z,100197.70
2019-01-24T11:21:46.471Z,100196.11
2019-01-24T11:24:16.087Z,100195.12
2019-01-24T11:26:46.168Z,100197.50
2019-01-24T11:29:16.577Z,100199.11
2019-01-24T11:31:46.712Z,100196.72
2019-01-24T11:34:16.562Z,100202.36
2019-01-24T11:36:47.067Z,100195.42
2019-01-24T11:39:17.162Z,100199.81
2019-01-24T11:41:47.052Z,100199.45
2019-01-24T11:44:16.673Z,100194.13
2019-01-24T11:46:46.723Z,100192.48
2019-01-24T11:49:16.482Z,100198.55
2019-01-24T11:51:46.541Z,100195.06
2019-01-24T11:54:16.603Z,100193.76
2019-01-24T11:56:47.149Z,100190.53
2019-01-24T11:59:16.657Z,100182.27
2019-01-24T12:01:46.910Z,100188.11
2019-01-24T12:04:16.719Z,100184.13
2019-01-24T12:06:47.044Z,100182.70
2019-01-24T12:09:18.093Z,100185.30
2019-01-24T12:11:48.742Z,100177.86
2019-01-24T12:14:18.581Z,100175.48
2019-01-24T12:16:48.597Z,100174.25
2019-01-24T12:19:18.128Z,100180.52
2019-01-24T12:21:48.060Z,100175.03
2019-01-24T12:24:17.894Z,100179.50
2019-01-24T12:26:47.762Z,100137.74
2019-01-24T12:29:17.288Z,100179.22
2019-01-24T12:31:47.751Z,100176.17
2019-01-24T12:34:17.707Z,100180.63
2019-01-24T12:36:47.740Z,100184.23
2019-01-24T12:39:19.822Z,100178.77
2019-01-24T12:41:49.678Z,100175.70
2019-01-24T12:44:19.310Z,100175.77
2019-01-24T12:46:48.929Z,100177.02
2019-01-24T12:49:19.145Z,100179.48
2019-01-24T12:51:48.698Z,100179.48
2019-01-24T12:54:18.191Z,100183.77
2019-01-24T12:56:47.731Z,100188.11
2019-01-24T12:59:17.700Z,100185.34
2019-01-24T13:01:48.508Z,100183.05
2019-01-24T13:04:18.362Z,100187.33
2019-01-24T13:06:48.533Z,100184.50
2019-01-24T13:09:18.192Z,100182.81
2019-01-24T13:11:49.232Z,100184.77
2019-01-24T13:14:19.078Z,100184.39
2019-01-24T13:16:48.816Z,100178.41
2019-01-24T13:19:18.703Z,100177.23
2019-01-24T13:21:48.690Z,100182.31
2019-01-24T13:24:18.332Z,100184.17
2019-01-24T13:26:48.573Z,100190.69
2019-01-24T13:29:18.708Z,100186.42
2019-01-24T13:31:51.167Z,100179.03
2019-01-24T13:34:21.027Z,100191.33
2019-01-24T13:36:50.891Z,100197.26
2019-01-24T13:39:21.082Z,100202.20
2019-01-24T13:41:50.615Z,100201.70
2019-01-24T13:44:21.079Z,100195.34
2019-01-24T13:46:50.684Z,100192.80
2019-01-24T13:49:20.594Z,100194.27
2019-01-24T13:51:50.143Z,100198.48
2019-01-24T13:54:20.244Z,100206.73
